CES9656 VRMM-ZPPP
Flight info
| Callsign | CES9656 |
|---|---|
| Flight time | N/A |
| Altitude | 36998 |
| Route | ATSON G465 KAT A465 CEA B465 CTG A599 GULOT |
| Aircraft | A321/M-SDE3FGHIRWY/LB1 |
Departure
| Time | 2026-05-07 04:52 |
|---|---|
| Airport | Velana International Airport (VRMM) |
Arrival
| Time | N/A |
|---|---|
| Airport | Kunming Changshui International Airport (ZPPP) |
| Time | Latitude | Longitude | Altitude | Speed | Heading |
|---|---|---|---|---|---|
| 2026-05-07 04:39 | 4.18459 | 73.52781 | 13 ft | 0 kts | 269° |
| 2026-05-07 04:43 | 4.18459 | 73.52780 | 13 ft | 0 kts | 269° |
| 2026-05-07 04:44 | 4.18459 | 73.52781 | 13 ft | 0 kts | 269° |
| 2026-05-07 04:44 | 4.18459 | 73.52783 | 13 ft | 2 kts | 270° |
| 2026-05-07 04:45 | 4.18460 | 73.52799 | 13 ft | 2 kts | 269° |
| 2026-05-07 04:45 | 4.18460 | 73.52814 | 13 ft | 2 kts | 269° |
| 2026-05-07 04:45 | 4.18460 | 73.52828 | 14 ft | 2 kts | 269° |
| 2026-05-07 04:45 | 4.18460 | 73.52842 | 13 ft | 2 kts | 258° |
| 2026-05-07 04:46 | 4.18468 | 73.52854 | 14 ft | 2 kts | 213° |
| 2026-05-07 04:46 | 4.18480 | 73.52859 | 14 ft | 1 kts | 180° |
| 2026-05-07 04:46 | 4.18492 | 73.52856 | 14 ft | 2 kts | 172° |
| 2026-05-07 04:46 | 4.18507 | 73.52856 | 14 ft | 2 kts | 183° |
| 2026-05-07 04:47 | 4.18522 | 73.52856 | 14 ft | 2 kts | 178° |
| 2026-05-07 04:47 | 4.18526 | 73.52856 | 14 ft | 0 kts | 179° |
| 2026-05-07 04:49 | 4.18506 | 73.52857 | 14 ft | 6 kts | 178° |
| 2026-05-07 04:49 | 4.18433 | 73.52859 | 13 ft | 12 kts | 179° |
| 2026-05-07 04:49 | 4.18329 | 73.52860 | 11 ft | 16 kts | 179° |
| 2026-05-07 04:50 | 4.18215 | 73.52860 | 11 ft | 16 kts | 180° |
| 2026-05-07 04:50 | 4.18126 | 73.52876 | 11 ft | 9 kts | 118° |
| 2026-05-07 04:50 | 4.18154 | 73.52934 | 11 ft | 9 kts | 22° |
| 2026-05-07 04:50 | 4.18191 | 73.52959 | 11 ft | 6 kts | 75° |
| 2026-05-07 04:51 | 4.18195 | 73.53009 | 11 ft | 7 kts | 88° |
| 2026-05-07 04:51 | 4.18197 | 73.53062 | 11 ft | 8 kts | 87° |
| 2026-05-07 04:51 | 4.18237 | 73.53104 | 10 ft | 10 kts | 4° |
| 2026-05-07 04:51 | 4.18336 | 73.53104 | 10 ft | 32 kts | 359° |
| 2026-05-07 04:52 | 4.18813 | 73.53095 | 14 ft | 103 kts | 359° |
| 2026-05-07 04:52 | 4.19762 | 73.53098 | 10 ft | 163 kts | 358° |
| 2026-05-07 04:52 | 4.20971 | 73.53094 | 432 ft | 173 kts | 356° |
| 2026-05-07 04:52 | 4.22145 | 73.53062 | 1065 ft | 171 kts | 354° |
| 2026-05-07 04:53 | 4.23343 | 73.53042 | 1632 ft | 177 kts | 357° |
| 2026-05-07 04:53 | 4.24618 | 73.53050 | 2065 ft | 193 kts | 358° |
| 2026-05-07 04:53 | 4.26035 | 73.53059 | 2513 ft | 210 kts | 358° |
| 2026-05-07 04:53 | 4.27574 | 73.53062 | 2878 ft | 233 kts | 357° |
| 2026-05-07 04:54 | 4.29273 | 73.53059 | 3409 ft | 251 kts | 358° |
| 2026-05-07 04:54 | 4.31045 | 73.53060 | 3904 ft | 258 kts | 358° |
| 2026-05-07 04:54 | 4.32856 | 73.53060 | 4289 ft | 265 kts | 358° |
| 2026-05-07 04:54 | 4.34718 | 73.53058 | 4817 ft | 267 kts | 359° |
| 2026-05-07 04:55 | 4.36634 | 73.53053 | 5378 ft | 268 kts | 359° |
| 2026-05-07 04:55 | 4.38529 | 73.53059 | 5916 ft | 270 kts | 2° |
| 2026-05-07 04:55 | 4.40334 | 73.53548 | 6339 ft | 276 kts | 31° |
| 2026-05-07 04:55 | 4.41699 | 73.54895 | 6843 ft | 281 kts | 58° |
| 2026-05-07 04:56 | 4.42304 | 73.56812 | 7310 ft | 287 kts | 85° |
| 2026-05-07 04:56 | 4.42287 | 73.58888 | 7823 ft | 289 kts | 90° |
| 2026-05-07 04:56 | 4.42243 | 73.60899 | 8302 ft | 291 kts | 89° |
| 2026-05-07 04:56 | 4.42217 | 73.62931 | 8774 ft | 293 kts | 89° |
| 2026-05-07 04:57 | 4.42207 | 73.64951 | 9238 ft | 294 kts | 89° |
| 2026-05-07 04:57 | 4.42204 | 73.67013 | 9703 ft | 296 kts | 89° |
| 2026-05-07 04:57 | 4.42204 | 73.69091 | 10043 ft | 303 kts | 88° |
| 2026-05-07 04:57 | 4.42204 | 73.71242 | 10249 ft | 314 kts | 88° |
| 2026-05-07 04:58 | 4.42205 | 73.73470 | 10453 ft | 325 kts | 89° |
| 2026-05-07 04:58 | 4.42291 | 73.75759 | 10639 ft | 335 kts | 84° |
| 2026-05-07 04:58 | 4.42602 | 73.78114 | 10831 ft | 345 kts | 78° |
| 2026-05-07 04:58 | 4.43107 | 73.80480 | 11014 ft | 354 kts | 76° |
| 2026-05-07 04:59 | 4.43668 | 73.82916 | 11190 ft | 364 kts | 76° |
| 2026-05-07 04:59 | 4.44252 | 73.85432 | 11358 ft | 374 kts | 76° |
| 2026-05-07 04:59 | 4.44843 | 73.87992 | 11518 ft | 382 kts | 76° |
| 2026-05-07 04:59 | 4.45441 | 73.90604 | 11671 ft | 391 kts | 76° |
| 2026-05-07 05:00 | 4.46054 | 73.93286 | 11899 ft | 396 kts | 76° |
| 2026-05-07 05:00 | 4.46672 | 73.95995 | 12231 ft | 398 kts | 76° |
| 2026-05-07 05:00 | 4.47284 | 73.98681 | 12576 ft | 400 kts | 76° |
| 2026-05-07 05:00 | 4.47906 | 74.01419 | 12915 ft | 402 kts | 76° |
| 2026-05-07 05:01 | 4.48522 | 74.04130 | 13218 ft | 404 kts | 76° |
| 2026-05-07 05:01 | 4.49147 | 74.06877 | 13510 ft | 406 kts | 76° |
| 2026-05-07 05:01 | 4.49777 | 74.09650 | 13806 ft | 409 kts | 76° |
| 2026-05-07 05:01 | 4.50412 | 74.12450 | 14098 ft | 411 kts | 76° |
| 2026-05-07 05:02 | 4.51050 | 74.15263 | 14378 ft | 413 kts | 76° |
| 2026-05-07 05:02 | 4.51690 | 74.18079 | 14655 ft | 415 kts | 76° |
| 2026-05-07 05:02 | 4.52327 | 74.20888 | 14924 ft | 418 kts | 76° |
| 2026-05-07 05:02 | 4.52968 | 74.23710 | 15183 ft | 420 kts | 76° |
| 2026-05-07 05:03 | 4.53660 | 74.26572 | 15456 ft | 421 kts | 73° |
| 2026-05-07 05:03 | 4.54540 | 74.29391 | 15713 ft | 423 kts | 69° |
| 2026-05-07 05:03 | 4.55605 | 74.32107 | 15944 ft | 424 kts | 65° |
| 2026-05-07 05:03 | 4.56829 | 74.34818 | 16198 ft | 426 kts | 64° |
| 2026-05-07 05:04 | 4.58081 | 74.37530 | 16444 ft | 428 kts | 64° |
| 2026-05-07 05:04 | 4.59342 | 74.40261 | 16694 ft | 430 kts | 64° |
| 2026-05-07 05:04 | 4.60583 | 74.42954 | 16899 ft | 432 kts | 64° |
| 2026-05-07 05:04 | 4.61855 | 74.45721 | 16996 ft | 438 kts | 64° |
| 2026-05-07 05:05 | 4.63138 | 74.48518 | 17097 ft | 443 kts | 64° |
| 2026-05-07 05:05 | 4.64422 | 74.51318 | 17191 ft | 448 kts | 64° |
| 2026-05-07 05:05 | 4.65728 | 74.54170 | 17285 ft | 452 kts | 64° |
| 2026-05-07 05:05 | 4.67039 | 74.57037 | 17415 ft | 455 kts | 64° |
| 2026-05-07 05:06 | 4.68368 | 74.59943 | 17602 ft | 457 kts | 64° |
| 2026-05-07 05:06 | 4.69682 | 74.62818 | 17804 ft | 457 kts | 64° |
| 2026-05-07 05:06 | 4.71020 | 74.65745 | 17988 ft | 459 kts | 64° |
| 2026-05-07 05:06 | 4.72352 | 74.68658 | 18174 ft | 459 kts | 64° |
| 2026-05-07 05:07 | 4.73671 | 74.71542 | 18351 ft | 460 kts | 64° |
| 2026-05-07 05:07 | 4.75008 | 74.74467 | 18531 ft | 461 kts | 64° |
| 2026-05-07 05:07 | 4.76349 | 74.77399 | 18696 ft | 462 kts | 64° |
| 2026-05-07 05:07 | 4.77705 | 74.80370 | 18852 ft | 463 kts | 64° |
| 2026-05-07 05:08 | 4.79041 | 74.83294 | 19022 ft | 463 kts | 64° |
| 2026-05-07 05:08 | 4.80395 | 74.86258 | 19201 ft | 463 kts | 64° |
| 2026-05-07 05:08 | 4.81729 | 74.89181 | 19366 ft | 464 kts | 64° |
| 2026-05-07 05:08 | 4.83081 | 74.92142 | 19525 ft | 464 kts | 64° |
| 2026-05-07 05:09 | 4.84429 | 74.95095 | 19676 ft | 465 kts | 64° |
| 2026-05-07 05:09 | 4.85775 | 74.98041 | 19837 ft | 465 kts | 64° |
| 2026-05-07 05:09 | 4.87112 | 75.00970 | 20010 ft | 465 kts | 64° |
| 2026-05-07 05:09 | 4.88464 | 75.03931 | 20130 ft | 466 kts | 64° |
| 2026-05-07 05:10 | 4.89810 | 75.06883 | 20250 ft | 467 kts | 64° |
| 2026-05-07 05:10 | 4.91172 | 75.09869 | 20375 ft | 468 kts | 64° |
| 2026-05-07 05:10 | 4.92522 | 75.12831 | 20506 ft | 468 kts | 64° |
| 2026-05-07 05:10 | 4.93877 | 75.15803 | 20630 ft | 469 kts | 64° |
| 2026-05-07 05:11 | 4.95226 | 75.18760 | 20748 ft | 470 kts | 64° |
| 2026-05-07 05:11 | 4.96596 | 75.21765 | 20867 ft | 470 kts | 64° |
| 2026-05-07 05:11 | 4.97965 | 75.24770 | 20974 ft | 471 kts | 65° |
| 2026-05-07 05:11 | 4.99322 | 75.27750 | 21088 ft | 471 kts | 64° |
| 2026-05-07 05:12 | 5.00694 | 75.30761 | 21218 ft | 471 kts | 64° |
| 2026-05-07 05:12 | 5.02039 | 75.33713 | 21345 ft | 471 kts | 64° |
| 2026-05-07 05:12 | 5.03411 | 75.36727 | 21468 ft | 471 kts | 64° |
| 2026-05-07 05:12 | 5.04768 | 75.39705 | 21585 ft | 471 kts | 65° |
| 2026-05-07 05:13 | 5.06135 | 75.42709 | 21675 ft | 472 kts | 65° |
| 2026-05-07 05:13 | 5.07486 | 75.45677 | 21756 ft | 473 kts | 65° |
| 2026-05-07 05:13 | 5.08861 | 75.48702 | 21834 ft | 474 kts | 65° |
| 2026-05-07 05:13 | 5.10221 | 75.51696 | 21918 ft | 475 kts | 65° |
| 2026-05-07 05:14 | 5.11597 | 75.54725 | 22015 ft | 475 kts | 65° |
| 2026-05-07 05:14 | 5.12977 | 75.57761 | 22123 ft | 475 kts | 65° |
| 2026-05-07 05:14 | 5.14341 | 75.60751 | 22237 ft | 475 kts | 65° |
| 2026-05-07 05:14 | 5.15742 | 75.63816 | 22337 ft | 476 kts | 65° |
| 2026-05-07 05:15 | 5.17124 | 75.66844 | 22427 ft | 476 kts | 65° |
| 2026-05-07 05:15 | 5.18489 | 75.69840 | 22527 ft | 476 kts | 65° |
| 2026-05-07 05:15 | 5.19866 | 75.72866 | 22640 ft | 476 kts | 65° |
| 2026-05-07 05:15 | 5.21241 | 75.75887 | 22736 ft | 477 kts | 65° |
| 2026-05-07 05:16 | 5.22627 | 75.78935 | 22805 ft | 478 kts | 65° |
| 2026-05-07 05:16 | 5.23996 | 75.81950 | 22893 ft | 478 kts | 65° |
| 2026-05-07 05:16 | 5.25389 | 75.85017 | 22988 ft | 479 kts | 65° |
| 2026-05-07 05:16 | 5.26771 | 75.88062 | 23059 ft | 480 kts | 65° |
| 2026-05-07 05:17 | 5.28136 | 75.91068 | 23137 ft | 480 kts | 65° |
| 2026-05-07 05:17 | 5.29520 | 75.94120 | 23228 ft | 481 kts | 65° |
| 2026-05-07 05:17 | 5.30910 | 75.97189 | 23314 ft | 481 kts | 65° |
| 2026-05-07 05:17 | 5.32296 | 76.00243 | 23405 ft | 481 kts | 65° |
| 2026-05-07 05:18 | 5.33685 | 76.03303 | 23494 ft | 481 kts | 65° |
| 2026-05-07 05:18 | 5.35082 | 76.06370 | 23567 ft | 482 kts | 65° |
| 2026-05-07 05:18 | 5.36470 | 76.09411 | 23649 ft | 482 kts | 65° |
| 2026-05-07 05:18 | 5.37869 | 76.12483 | 23725 ft | 482 kts | 65° |
| 2026-05-07 05:19 | 5.39259 | 76.15540 | 23791 ft | 483 kts | 65° |
| 2026-05-07 05:19 | 5.40660 | 76.18622 | 23854 ft | 483 kts | 65° |
| 2026-05-07 05:19 | 5.42056 | 76.21697 | 23921 ft | 483 kts | 65° |
| 2026-05-07 05:19 | 5.43446 | 76.24763 | 23985 ft | 484 kts | 65° |
| 2026-05-07 05:20 | 5.44827 | 76.27809 | 24041 ft | 484 kts | 65° |
| 2026-05-07 05:20 | 5.46233 | 76.30911 | 24095 ft | 485 kts | 65° |
| 2026-05-07 05:20 | 5.47630 | 76.33991 | 24147 ft | 485 kts | 65° |
| 2026-05-07 05:20 | 5.49039 | 76.37100 | 24195 ft | 485 kts | 65° |
| 2026-05-07 05:21 | 5.50423 | 76.40155 | 24245 ft | 486 kts | 65° |
| 2026-05-07 05:21 | 5.53229 | 76.46348 | 24361 ft | 486 kts | 65° |
| 2026-05-07 05:21 | 5.54624 | 76.49430 | 24413 ft | 486 kts | 65° |
| 2026-05-07 05:22 | 5.56029 | 76.52531 | 24450 ft | 486 kts | 66° |
| 2026-05-07 05:22 | 5.57420 | 76.55602 | 24485 ft | 486 kts | 66° |
| 2026-05-07 05:22 | 5.58825 | 76.58704 | 24516 ft | 487 kts | 66° |
| 2026-05-07 05:22 | 5.60220 | 76.61787 | 24562 ft | 487 kts | 66° |
| 2026-05-07 05:23 | 5.61620 | 76.64881 | 24593 ft | 487 kts | 66° |
| 2026-05-07 05:23 | 5.63038 | 76.68014 | 24644 ft | 487 kts | 66° |
| 2026-05-07 05:23 | 5.64426 | 76.71084 | 24713 ft | 487 kts | 66° |
| 2026-05-07 05:23 | 5.65834 | 76.74196 | 24784 ft | 486 kts | 66° |
| 2026-05-07 05:24 | 5.67227 | 76.77277 | 24847 ft | 486 kts | 66° |
| 2026-05-07 05:24 | 5.68632 | 76.80386 | 24923 ft | 485 kts | 66° |
| 2026-05-07 05:24 | 5.70026 | 76.83471 | 25000 ft | 485 kts | 66° |
| 2026-05-07 05:24 | 5.71427 | 76.86566 | 25052 ft | 485 kts | 66° |
| 2026-05-07 05:25 | 5.72819 | 76.89648 | 25116 ft | 485 kts | 66° |
| 2026-05-07 05:25 | 5.74208 | 76.92721 | 25171 ft | 485 kts | 66° |
| 2026-05-07 05:25 | 5.75609 | 76.95822 | 25242 ft | 484 kts | 66° |
| 2026-05-07 05:25 | 5.77005 | 76.98911 | 25313 ft | 484 kts | 66° |
| 2026-05-07 05:26 | 5.78393 | 77.01989 | 25372 ft | 484 kts | 66° |
| 2026-05-07 05:26 | 5.79774 | 77.05045 | 25425 ft | 484 kts | 66° |
| 2026-05-07 05:26 | 5.81164 | 77.08124 | 25498 ft | 484 kts | 67° |
| 2026-05-07 05:26 | 5.82555 | 77.11208 | 25563 ft | 484 kts | 67° |
| 2026-05-07 05:27 | 5.83939 | 77.14275 | 25635 ft | 483 kts | 67° |
| 2026-05-07 05:27 | 5.85330 | 77.17362 | 25720 ft | 483 kts | 67° |
| 2026-05-07 05:27 | 5.86708 | 77.20417 | 25790 ft | 483 kts | 67° |
| 2026-05-07 05:27 | 5.88091 | 77.23484 | 25876 ft | 482 kts | 67° |
| 2026-05-07 05:28 | 5.89468 | 77.26537 | 25975 ft | 481 kts | 67° |
| 2026-05-07 05:28 | 5.90843 | 77.29590 | 26074 ft | 480 kts | 67° |
| 2026-05-07 05:28 | 5.92216 | 77.32641 | 26157 ft | 480 kts | 67° |
| 2026-05-07 05:28 | 5.93587 | 77.35686 | 26230 ft | 480 kts | 67° |
| 2026-05-07 05:29 | 5.94961 | 77.38738 | 26300 ft | 480 kts | 67° |
| 2026-05-07 05:29 | 5.96333 | 77.41789 | 26368 ft | 480 kts | 67° |
| 2026-05-07 05:29 | 5.97717 | 77.44868 | 26433 ft | 480 kts | 67° |
| 2026-05-07 05:29 | 5.99078 | 77.47892 | 26497 ft | 480 kts | 67° |
| 2026-05-07 05:30 | 6.00512 | 77.50940 | 26577 ft | 480 kts | 65° |
| 2026-05-07 05:30 | 6.02032 | 77.53952 | 26658 ft | 480 kts | 64° |
| 2026-05-07 05:30 | 6.03547 | 77.56928 | 26744 ft | 480 kts | 64° |
| 2026-05-07 05:30 | 6.05053 | 77.59883 | 26834 ft | 479 kts | 64° |
| 2026-05-07 05:31 | 6.06578 | 77.62882 | 26923 ft | 479 kts | 64° |
| 2026-05-07 05:31 | 6.08084 | 77.65846 | 26999 ft | 479 kts | 65° |
| 2026-05-07 05:31 | 6.09603 | 77.68839 | 27099 ft | 478 kts | 65° |
| 2026-05-07 05:31 | 6.11110 | 77.71815 | 27187 ft | 478 kts | 65° |
| 2026-05-07 05:32 | 6.12610 | 77.74777 | 27260 ft | 478 kts | 65° |
| 2026-05-07 05:32 | 6.14112 | 77.77747 | 27329 ft | 478 kts | 64° |
| 2026-05-07 05:32 | 6.15622 | 77.80733 | 27391 ft | 479 kts | 64° |
| 2026-05-07 05:32 | 6.17122 | 77.83695 | 27450 ft | 479 kts | 64° |
| 2026-05-07 05:33 | 6.18636 | 77.86683 | 27543 ft | 479 kts | 64° |
| 2026-05-07 05:33 | 6.20147 | 77.89671 | 27646 ft | 478 kts | 64° |
| 2026-05-07 05:33 | 6.21650 | 77.92641 | 27746 ft | 478 kts | 64° |
| 2026-05-07 05:33 | 6.23154 | 77.95612 | 27836 ft | 477 kts | 65° |
| 2026-05-07 05:34 | 6.24665 | 77.98601 | 27929 ft | 477 kts | 64° |
| 2026-05-07 05:34 | 6.27672 | 78.04548 | 28102 ft | 477 kts | 64° |
| 2026-05-07 05:35 | 6.30657 | 78.10453 | 28284 ft | 476 kts | 65° |
| 2026-05-07 05:35 | 6.33656 | 78.16390 | 28446 ft | 476 kts | 64° |
| 2026-05-07 05:36 | 6.36661 | 78.22345 | 28589 ft | 477 kts | 65° |
| 2026-05-07 05:36 | 6.38144 | 78.25283 | 28692 ft | 476 kts | 64° |
| 2026-05-07 05:36 | 6.39650 | 78.28268 | 28809 ft | 475 kts | 64° |
| 2026-05-07 05:36 | 6.41127 | 78.31193 | 28931 ft | 474 kts | 64° |
| 2026-05-07 05:37 | 6.42618 | 78.34146 | 29048 ft | 474 kts | 64° |
| 2026-05-07 05:37 | 6.44122 | 78.37128 | 29164 ft | 473 kts | 64° |
| 2026-05-07 05:37 | 6.45613 | 78.40083 | 29276 ft | 472 kts | 64° |
| 2026-05-07 05:37 | 6.47098 | 78.43027 | 29394 ft | 472 kts | 64° |
| 2026-05-07 05:38 | 6.48578 | 78.45960 | 29505 ft | 471 kts | 64° |
| 2026-05-07 05:38 | 6.51539 | 78.51836 | 29687 ft | 471 kts | 64° |
| 2026-05-07 05:39 | 6.54496 | 78.57703 | 29865 ft | 472 kts | 64° |
| 2026-05-07 05:39 | 6.55959 | 78.60606 | 29970 ft | 471 kts | 64° |
| 2026-05-07 05:39 | 6.57451 | 78.63570 | 30079 ft | 471 kts | 64° |
| 2026-05-07 05:39 | 6.58929 | 78.66502 | 30192 ft | 470 kts | 64° |
| 2026-05-07 05:40 | 6.60401 | 78.69428 | 30320 ft | 470 kts | 64° |
| 2026-05-07 05:40 | 6.61876 | 78.72358 | 30437 ft | 469 kts | 64° |
| 2026-05-07 05:40 | 6.63344 | 78.75274 | 30545 ft | 469 kts | 64° |
| 2026-05-07 05:41 | 6.66283 | 78.81117 | 30748 ft | 469 kts | 64° |
| 2026-05-07 05:41 | 6.67750 | 78.84033 | 30862 ft | 468 kts | 64° |
| 2026-05-07 05:41 | 6.69226 | 78.86970 | 30982 ft | 468 kts | 64° |
| 2026-05-07 05:41 | 6.70696 | 78.89896 | 31086 ft | 468 kts | 64° |
| 2026-05-07 05:42 | 6.72157 | 78.92805 | 31189 ft | 468 kts | 64° |
| 2026-05-07 05:42 | 6.73619 | 78.95717 | 31293 ft | 467 kts | 64° |
| 2026-05-07 05:42 | 6.75096 | 78.98662 | 31399 ft | 467 kts | 64° |
| 2026-05-07 05:42 | 6.76547 | 79.01551 | 31524 ft | 467 kts | 64° |
| 2026-05-07 05:43 | 6.78011 | 79.04466 | 31657 ft | 466 kts | 64° |
| 2026-05-07 05:43 | 6.79439 | 79.07385 | 31766 ft | 465 kts | 65° |
| 2026-05-07 05:43 | 6.80819 | 79.10342 | 31861 ft | 465 kts | 65° |
| 2026-05-07 05:43 | 6.82165 | 79.13263 | 31965 ft | 465 kts | 66° |
| 2026-05-07 05:44 | 6.83521 | 79.16209 | 32092 ft | 464 kts | 66° |
| 2026-05-07 05:44 | 6.84895 | 79.19189 | 32236 ft | 463 kts | 65° |
| 2026-05-07 05:44 | 6.86237 | 79.22096 | 32358 ft | 462 kts | 65° |
| 2026-05-07 05:44 | 6.87597 | 79.25037 | 32468 ft | 462 kts | 65° |
| 2026-05-07 05:45 | 6.88953 | 79.27969 | 32587 ft | 461 kts | 65° |
| 2026-05-07 05:45 | 6.90305 | 79.30888 | 32701 ft | 461 kts | 66° |
| 2026-05-07 05:45 | 6.91657 | 79.33810 | 32833 ft | 460 kts | 65° |
| 2026-05-07 05:45 | 6.93004 | 79.36723 | 32975 ft | 459 kts | 66° |
| 2026-05-07 05:46 | 6.94348 | 79.39628 | 33090 ft | 459 kts | 65° |
| 2026-05-07 05:46 | 6.97043 | 79.45458 | 33269 ft | 459 kts | 65° |
| 2026-05-07 05:47 | 6.99740 | 79.51292 | 33488 ft | 459 kts | 65° |
| 2026-05-07 05:47 | 7.01076 | 79.54184 | 33623 ft | 458 kts | 65° |
| 2026-05-07 05:47 | 7.02412 | 79.57074 | 33739 ft | 458 kts | 65° |
| 2026-05-07 05:47 | 7.03764 | 79.60005 | 33883 ft | 457 kts | 65° |
| 2026-05-07 05:48 | 7.05087 | 79.62871 | 34009 ft | 456 kts | 65° |
| 2026-05-07 05:48 | 7.06432 | 79.65784 | 34129 ft | 455 kts | 65° |
| 2026-05-07 05:48 | 7.07748 | 79.68638 | 34228 ft | 455 kts | 65° |
| 2026-05-07 05:48 | 7.09088 | 79.71545 | 34356 ft | 455 kts | 65° |
| 2026-05-07 05:49 | 7.10412 | 79.74418 | 34492 ft | 454 kts | 65° |
| 2026-05-07 05:49 | 7.13515 | 79.79927 | 34649 ft | 454 kts | 52° |
| 2026-05-07 05:50 | 7.18089 | 79.84266 | 34802 ft | 454 kts | 35° |
| 2026-05-07 05:50 | 7.23771 | 79.87043 | 34818 ft | 455 kts | 18° |
| 2026-05-07 05:51 | 7.30058 | 79.88095 | 34823 ft | 457 kts | 6° |
| 2026-05-07 05:51 | 7.36416 | 79.88631 | 34818 ft | 457 kts | 6° |
| 2026-05-07 05:52 | 7.42772 | 79.89166 | 34813 ft | 457 kts | 6° |
| 2026-05-07 05:52 | 7.49107 | 79.89710 | 34812 ft | 456 kts | 6° |
| 2026-05-07 05:53 | 7.55449 | 79.90261 | 34813 ft | 456 kts | 6° |
| 2026-05-07 05:53 | 7.61811 | 79.90815 | 34813 ft | 456 kts | 6° |
| 2026-05-07 05:54 | 7.68143 | 79.91370 | 34813 ft | 457 kts | 6° |
| 2026-05-07 05:54 | 7.74481 | 79.91924 | 34813 ft | 457 kts | 6° |
| 2026-05-07 05:55 | 7.80826 | 79.92479 | 34813 ft | 456 kts | 6° |
| 2026-05-07 05:55 | 7.87193 | 79.93037 | 34816 ft | 456 kts | 5° |
| 2026-05-07 05:56 | 7.93495 | 79.93591 | 34815 ft | 456 kts | 5° |
| 2026-05-07 05:56 | 7.99860 | 79.94148 | 34816 ft | 456 kts | 5° |
| 2026-05-07 05:57 | 8.06206 | 79.94619 | 34820 ft | 456 kts | 4° |
| 2026-05-07 05:57 | 8.12539 | 79.95042 | 34831 ft | 456 kts | 4° |
| 2026-05-07 05:58 | 8.18879 | 79.95476 | 34834 ft | 456 kts | 4° |
| 2026-05-07 05:58 | 8.25206 | 79.95913 | 34834 ft | 456 kts | 4° |
| 2026-05-07 05:59 | 8.31554 | 79.96354 | 34834 ft | 456 kts | 4° |
| 2026-05-07 05:59 | 8.37900 | 79.96795 | 34834 ft | 456 kts | 4° |
| 2026-05-07 06:00 | 8.44269 | 79.97239 | 34832 ft | 456 kts | 4° |
| 2026-05-07 06:00 | 8.50581 | 79.97679 | 34833 ft | 456 kts | 4° |
| 2026-05-07 06:01 | 8.56980 | 79.98126 | 34833 ft | 457 kts | 4° |
| 2026-05-07 06:01 | 8.63345 | 79.98571 | 34832 ft | 458 kts | 4° |
| 2026-05-07 06:02 | 8.69688 | 79.99012 | 34832 ft | 459 kts | 4° |
| 2026-05-07 06:02 | 8.76102 | 79.99458 | 34832 ft | 458 kts | 4° |
| 2026-05-07 06:03 | 8.82454 | 79.99902 | 34831 ft | 459 kts | 4° |
| 2026-05-07 06:03 | 8.88869 | 80.00351 | 34830 ft | 460 kts | 4° |
| 2026-05-07 06:04 | 8.95242 | 80.00798 | 34831 ft | 459 kts | 4° |
| 2026-05-07 06:04 | 9.01651 | 80.01246 | 34830 ft | 460 kts | 4° |
| 2026-05-07 06:05 | 9.08041 | 80.01695 | 34830 ft | 460 kts | 4° |
| 2026-05-07 06:05 | 9.14462 | 80.02146 | 34831 ft | 461 kts | 4° |
| 2026-05-07 06:06 | 9.20865 | 80.02594 | 34832 ft | 461 kts | 4° |
| 2026-05-07 06:06 | 9.27263 | 80.03036 | 34833 ft | 461 kts | 4° |
| 2026-05-07 06:07 | 9.33674 | 80.03481 | 34835 ft | 460 kts | 4° |
| 2026-05-07 06:07 | 9.40137 | 80.03934 | 34830 ft | 461 kts | 4° |
| 2026-05-07 06:08 | 9.46533 | 80.04381 | 34829 ft | 463 kts | 4° |
| 2026-05-07 06:08 | 9.52993 | 80.04833 | 34827 ft | 463 kts | 5° |
| 2026-05-07 06:09 | 9.59473 | 80.05290 | 34831 ft | 464 kts | 5° |
| 2026-05-07 06:09 | 9.65896 | 80.05741 | 34832 ft | 463 kts | 5° |
| 2026-05-07 06:10 | 9.72350 | 80.06198 | 34831 ft | 463 kts | 5° |
| 2026-05-07 06:10 | 9.78838 | 80.06656 | 34830 ft | 465 kts | 5° |
| 2026-05-07 06:11 | 9.85296 | 80.07111 | 34828 ft | 466 kts | 5° |
| 2026-05-07 06:11 | 9.91762 | 80.07568 | 34830 ft | 466 kts | 5° |
| 2026-05-07 06:12 | 9.98281 | 80.08029 | 34827 ft | 466 kts | 5° |
| 2026-05-07 06:12 | 10.04783 | 80.08237 | 34829 ft | 467 kts | 2° |
| 2026-05-07 06:13 | 10.11291 | 80.08333 | 34828 ft | 467 kts | 2° |
| 2026-05-07 06:13 | 10.17811 | 80.08432 | 34829 ft | 467 kts | 2° |
| 2026-05-07 06:14 | 10.24285 | 80.08534 | 34828 ft | 467 kts | 2° |
| 2026-05-07 06:14 | 10.30846 | 80.08638 | 34828 ft | 468 kts | 2° |
| 2026-05-07 06:15 | 10.37380 | 80.08745 | 34830 ft | 468 kts | 2° |
| 2026-05-07 06:15 | 10.43890 | 80.08849 | 34828 ft | 468 kts | 2° |
| 2026-05-07 06:16 | 10.50410 | 80.08956 | 34829 ft | 468 kts | 2° |
| 2026-05-07 06:16 | 10.56945 | 80.09063 | 34829 ft | 468 kts | 2° |
| 2026-05-07 06:17 | 10.63475 | 80.09171 | 34828 ft | 468 kts | 2° |
| 2026-05-07 06:17 | 10.70030 | 80.09278 | 34828 ft | 468 kts | 2° |
| 2026-05-07 06:18 | 10.76565 | 80.09389 | 34830 ft | 468 kts | 2° |
| 2026-05-07 06:18 | 10.83065 | 80.09509 | 34828 ft | 469 kts | 2° |
| 2026-05-07 06:19 | 10.89609 | 80.09636 | 34829 ft | 469 kts | 2° |
| 2026-05-07 06:19 | 10.96164 | 80.09762 | 34828 ft | 469 kts | 2° |
| 2026-05-07 06:20 | 11.02692 | 80.09888 | 34830 ft | 469 kts | 2° |
| 2026-05-07 06:20 | 11.09236 | 80.10013 | 34829 ft | 469 kts | 2° |
| 2026-05-07 06:21 | 11.15791 | 80.10138 | 34829 ft | 469 kts | 2° |
| 2026-05-07 06:21 | 11.22338 | 80.10265 | 34829 ft | 468 kts | 2° |
| 2026-05-07 06:22 | 11.28872 | 80.10390 | 34825 ft | 468 kts | 2° |
| 2026-05-07 06:22 | 11.38661 | 80.10580 | 34813 ft | 469 kts | 2° |
| 2026-05-07 06:23 | 11.45179 | 80.10706 | 34810 ft | 469 kts | 2° |
| 2026-05-07 06:23 | 11.51741 | 80.10832 | 34812 ft | 469 kts | 2° |
| 2026-05-07 06:24 | 11.58269 | 80.10960 | 34821 ft | 468 kts | 2° |
| 2026-05-07 06:24 | 11.64804 | 80.11086 | 34825 ft | 468 kts | 2° |
| 2026-05-07 06:25 | 11.71304 | 80.11214 | 34829 ft | 467 kts | 2° |
| 2026-05-07 06:25 | 11.77836 | 80.11342 | 34830 ft | 467 kts | 2° |
| 2026-05-07 06:26 | 11.84360 | 80.11470 | 34828 ft | 468 kts | 2° |
| 2026-05-07 06:26 | 11.90870 | 80.11648 | 34830 ft | 469 kts | 2° |
| 2026-05-07 06:27 | 11.97395 | 80.11883 | 34831 ft | 469 kts | 2° |
| 2026-05-07 06:27 | 12.03958 | 80.12120 | 34829 ft | 469 kts | 2° |
| 2026-05-07 06:28 | 12.10484 | 80.12353 | 34829 ft | 468 kts | 2° |
| 2026-05-07 06:28 | 12.17016 | 80.12584 | 34828 ft | 468 kts | 2° |
| 2026-05-07 06:29 | 12.23526 | 80.12814 | 34826 ft | 468 kts | 2° |
| 2026-05-07 06:29 | 12.30076 | 80.13045 | 34824 ft | 468 kts | 2° |
| 2026-05-07 06:30 | 12.36608 | 80.13276 | 34827 ft | 468 kts | 2° |
| 2026-05-07 06:30 | 12.43111 | 80.13507 | 34822 ft | 469 kts | 2° |
| 2026-05-07 06:31 | 12.49651 | 80.13738 | 34817 ft | 469 kts | 2° |
| 2026-05-07 06:31 | 12.56216 | 80.13972 | 34815 ft | 469 kts | 2° |
| 2026-05-07 06:32 | 12.62757 | 80.14204 | 34810 ft | 468 kts | 2° |
| 2026-05-07 06:32 | 12.69273 | 80.14435 | 34809 ft | 468 kts | 2° |
| 2026-05-07 06:33 | 12.75777 | 80.14667 | 34809 ft | 468 kts | 2° |
| 2026-05-07 06:33 | 12.82328 | 80.14902 | 34805 ft | 468 kts | 2° |
| 2026-05-07 06:34 | 12.88854 | 80.15136 | 34806 ft | 468 kts | 2° |
| 2026-05-07 06:34 | 12.95317 | 80.15894 | 34807 ft | 468 kts | 12° |
| 2026-05-07 06:35 | 13.01562 | 80.17896 | 34804 ft | 468 kts | 23° |
| 2026-05-07 06:35 | 13.07315 | 80.21058 | 34812 ft | 468 kts | 33° |
| 2026-05-07 06:36 | 13.12761 | 80.24689 | 34808 ft | 467 kts | 33° |
| 2026-05-07 06:36 | 13.18181 | 80.28329 | 34804 ft | 467 kts | 33° |
| 2026-05-07 06:37 | 13.23635 | 80.31973 | 34807 ft | 468 kts | 33° |
| 2026-05-07 06:37 | 13.29102 | 80.35618 | 34812 ft | 468 kts | 33° |
| 2026-05-07 06:38 | 13.34580 | 80.39270 | 34810 ft | 468 kts | 33° |
| 2026-05-07 06:38 | 13.40037 | 80.42909 | 34812 ft | 469 kts | 33° |
| 2026-05-07 06:39 | 13.45512 | 80.46561 | 34809 ft | 469 kts | 33° |
| 2026-05-07 06:39 | 13.50981 | 80.50211 | 34814 ft | 469 kts | 33° |
| 2026-05-07 06:40 | 13.56462 | 80.53870 | 34817 ft | 469 kts | 33° |
| 2026-05-07 06:40 | 13.61944 | 80.57534 | 34819 ft | 469 kts | 33° |
| 2026-05-07 06:41 | 13.67437 | 80.61208 | 34818 ft | 469 kts | 33° |
| 2026-05-07 06:41 | 13.72913 | 80.64872 | 34819 ft | 470 kts | 33° |
| 2026-05-07 06:42 | 13.78394 | 80.68542 | 34819 ft | 470 kts | 33° |
| 2026-05-07 06:42 | 13.83868 | 80.72211 | 34820 ft | 471 kts | 33° |
| 2026-05-07 06:43 | 13.89359 | 80.75893 | 34822 ft | 470 kts | 33° |
| 2026-05-07 06:43 | 13.94845 | 80.79578 | 34821 ft | 470 kts | 33° |
| 2026-05-07 06:44 | 14.00309 | 80.83244 | 34822 ft | 471 kts | 33° |
| 2026-05-07 06:44 | 14.05870 | 80.86835 | 34823 ft | 471 kts | 32° |
| 2026-05-07 06:45 | 14.11474 | 80.90414 | 34825 ft | 471 kts | 32° |
| 2026-05-07 06:45 | 14.17011 | 80.93968 | 34828 ft | 470 kts | 32° |
| 2026-05-07 06:46 | 14.22576 | 80.97551 | 34840 ft | 471 kts | 32° |
| 2026-05-07 06:46 | 14.28146 | 81.01141 | 34848 ft | 471 kts | 32° |
| 2026-05-07 06:47 | 14.33692 | 81.04717 | 34849 ft | 471 kts | 32° |
| 2026-05-07 06:47 | 14.39279 | 81.08323 | 34849 ft | 471 kts | 32° |
| 2026-05-07 06:48 | 14.44817 | 81.11900 | 34850 ft | 471 kts | 32° |
| 2026-05-07 06:48 | 14.50371 | 81.15489 | 34848 ft | 471 kts | 32° |
| 2026-05-07 06:49 | 14.55964 | 81.19106 | 34845 ft | 472 kts | 32° |
| 2026-05-07 06:49 | 14.61528 | 81.22706 | 34840 ft | 471 kts | 32° |
| 2026-05-07 06:50 | 14.67084 | 81.26302 | 34834 ft | 472 kts | 32° |
| 2026-05-07 06:50 | 14.72619 | 81.29888 | 34830 ft | 472 kts | 32° |
| 2026-05-07 06:51 | 14.78210 | 81.33511 | 34829 ft | 472 kts | 32° |
| 2026-05-07 06:51 | 14.83782 | 81.37125 | 34828 ft | 472 kts | 32° |
| 2026-05-07 06:52 | 14.89316 | 81.40717 | 34827 ft | 472 kts | 32° |
| 2026-05-07 06:52 | 14.94874 | 81.44327 | 34828 ft | 472 kts | 32° |
| 2026-05-07 06:53 | 15.00432 | 81.47939 | 34828 ft | 471 kts | 32° |
| 2026-05-07 06:53 | 15.06013 | 81.51569 | 34827 ft | 472 kts | 32° |
| 2026-05-07 06:54 | 15.11559 | 81.55177 | 34828 ft | 472 kts | 32° |
| 2026-05-07 06:54 | 15.17139 | 81.58811 | 34828 ft | 473 kts | 32° |
| 2026-05-07 06:55 | 15.22705 | 81.62437 | 34830 ft | 472 kts | 32° |
| 2026-05-07 06:55 | 15.28284 | 81.66076 | 34832 ft | 473 kts | 32° |
| 2026-05-07 06:56 | 15.33826 | 81.69692 | 34834 ft | 473 kts | 32° |
| 2026-05-07 06:56 | 15.39414 | 81.73342 | 34833 ft | 473 kts | 32° |
| 2026-05-07 06:57 | 15.44965 | 81.76971 | 34833 ft | 473 kts | 32° |
| 2026-05-07 06:57 | 15.50573 | 81.80643 | 34836 ft | 474 kts | 32° |
| 2026-05-07 06:58 | 15.56146 | 81.84291 | 34840 ft | 474 kts | 32° |
| 2026-05-07 06:58 | 15.61680 | 81.87994 | 34846 ft | 474 kts | 33° |
| 2026-05-07 06:59 | 15.67230 | 81.91739 | 34847 ft | 474 kts | 33° |
| 2026-05-07 06:59 | 15.72760 | 81.95472 | 34848 ft | 474 kts | 33° |
| 2026-05-07 07:00 | 15.78271 | 81.99194 | 34849 ft | 474 kts | 33° |
| 2026-05-07 07:00 | 15.83817 | 82.02940 | 34851 ft | 475 kts | 32° |
| 2026-05-07 07:01 | 15.89395 | 82.06654 | 34851 ft | 475 kts | 32° |
| 2026-05-07 07:01 | 15.94980 | 82.10318 | 34851 ft | 475 kts | 32° |
| 2026-05-07 07:02 | 16.00585 | 82.14008 | 34847 ft | 474 kts | 32° |
| 2026-05-07 07:02 | 16.06144 | 82.17679 | 34847 ft | 474 kts | 32° |
| 2026-05-07 07:03 | 16.11714 | 82.21362 | 34846 ft | 474 kts | 32° |
| 2026-05-07 07:03 | 16.17295 | 82.25056 | 34842 ft | 474 kts | 32° |
| 2026-05-07 07:04 | 16.22857 | 82.28740 | 34834 ft | 474 kts | 32° |
| 2026-05-07 07:04 | 16.28429 | 82.32433 | 34831 ft | 475 kts | 32° |
| 2026-05-07 07:05 | 16.33986 | 82.36120 | 34823 ft | 475 kts | 32° |
| 2026-05-07 07:05 | 16.39563 | 82.39821 | 34819 ft | 475 kts | 32° |
| 2026-05-07 07:06 | 16.45141 | 82.43526 | 34816 ft | 475 kts | 32° |
| 2026-05-07 07:06 | 16.50734 | 82.47244 | 34818 ft | 475 kts | 32° |
| 2026-05-07 07:07 | 16.56307 | 82.50951 | 34817 ft | 475 kts | 31° |
| 2026-05-07 07:07 | 16.61895 | 82.54674 | 34815 ft | 475 kts | 31° |
| 2026-05-07 07:08 | 16.67450 | 82.58376 | 34816 ft | 475 kts | 31° |
| 2026-05-07 07:08 | 16.73039 | 82.62109 | 34815 ft | 476 kts | 31° |
| 2026-05-07 07:09 | 16.78621 | 82.65831 | 34815 ft | 475 kts | 32° |
| 2026-05-07 07:09 | 16.84166 | 82.69531 | 34820 ft | 475 kts | 32° |
| 2026-05-07 07:10 | 16.89747 | 82.73264 | 34829 ft | 476 kts | 32° |
| 2026-05-07 07:10 | 16.95318 | 82.76999 | 34833 ft | 476 kts | 32° |
| 2026-05-07 07:11 | 17.00919 | 82.80757 | 34837 ft | 476 kts | 32° |
| 2026-05-07 07:11 | 17.06469 | 82.84485 | 34838 ft | 476 kts | 32° |
| 2026-05-07 07:12 | 17.12035 | 82.88226 | 34841 ft | 476 kts | 31° |
| 2026-05-07 07:12 | 17.17603 | 82.91972 | 34842 ft | 475 kts | 31° |
| 2026-05-07 07:13 | 17.23176 | 82.95723 | 34839 ft | 476 kts | 31° |
| 2026-05-07 07:13 | 17.28751 | 82.99478 | 34836 ft | 477 kts | 31° |
| 2026-05-07 07:14 | 17.34350 | 83.03252 | 34840 ft | 477 kts | 31° |
| 2026-05-07 07:14 | 17.39920 | 83.07012 | 34838 ft | 478 kts | 31° |
| 2026-05-07 07:15 | 17.45520 | 83.10794 | 34842 ft | 477 kts | 31° |
| 2026-05-07 07:15 | 17.51099 | 83.14568 | 34843 ft | 477 kts | 31° |
| 2026-05-07 07:16 | 17.56692 | 83.18356 | 34840 ft | 477 kts | 31° |
| 2026-05-07 07:16 | 17.62171 | 83.22231 | 34841 ft | 478 kts | 35° |
| 2026-05-07 07:17 | 17.67237 | 83.26730 | 34845 ft | 480 kts | 43° |
| 2026-05-07 07:17 | 17.71771 | 83.31909 | 34845 ft | 481 kts | 50° |
| 2026-05-07 07:18 | 17.75850 | 83.37505 | 34844 ft | 482 kts | 52° |
| 2026-05-07 07:18 | 17.79882 | 83.43128 | 34841 ft | 483 kts | 52° |
| 2026-05-07 07:19 | 17.83924 | 83.48743 | 34839 ft | 483 kts | 52° |
| 2026-05-07 07:19 | 17.87966 | 83.54343 | 34835 ft | 483 kts | 52° |
| 2026-05-07 07:20 | 17.92016 | 83.59955 | 34829 ft | 482 kts | 52° |
| 2026-05-07 07:20 | 17.96054 | 83.65555 | 34824 ft | 482 kts | 52° |
| 2026-05-07 07:21 | 18.00106 | 83.71179 | 34824 ft | 483 kts | 52° |
| 2026-05-07 07:21 | 18.04152 | 83.76802 | 34824 ft | 484 kts | 52° |
| 2026-05-07 07:22 | 18.08213 | 83.82449 | 34823 ft | 484 kts | 52° |
| 2026-05-07 07:22 | 18.12289 | 83.88123 | 34824 ft | 485 kts | 52° |
| 2026-05-07 07:23 | 18.16326 | 83.93750 | 34827 ft | 485 kts | 52° |
| 2026-05-07 07:23 | 18.20403 | 83.99439 | 34825 ft | 485 kts | 52° |
| 2026-05-07 07:24 | 18.24448 | 84.05094 | 34825 ft | 485 kts | 52° |
| 2026-05-07 07:24 | 18.28495 | 84.10749 | 34826 ft | 485 kts | 52° |
| 2026-05-07 07:25 | 18.34605 | 84.19196 | 34824 ft | 485 kts | 52° |
| 2026-05-07 07:26 | 18.38696 | 84.24853 | 34823 ft | 486 kts | 52° |
| 2026-05-07 07:26 | 18.42788 | 84.30525 | 34823 ft | 486 kts | 52° |
| 2026-05-07 07:27 | 18.46864 | 84.36183 | 34822 ft | 486 kts | 52° |
| 2026-05-07 07:27 | 18.50954 | 84.41866 | 34822 ft | 487 kts | 52° |
| 2026-05-07 07:28 | 18.55032 | 84.47540 | 34823 ft | 486 kts | 52° |
| 2026-05-07 07:28 | 18.59098 | 84.53200 | 34824 ft | 486 kts | 52° |
| 2026-05-07 07:29 | 18.63190 | 84.58903 | 34824 ft | 486 kts | 52° |
| 2026-05-07 07:29 | 18.67277 | 84.64606 | 34824 ft | 487 kts | 52° |
| 2026-05-07 07:30 | 18.71338 | 84.70277 | 34823 ft | 487 kts | 52° |
| 2026-05-07 07:30 | 18.75425 | 84.75993 | 34823 ft | 488 kts | 52° |
| 2026-05-07 07:31 | 18.79513 | 84.81719 | 34820 ft | 488 kts | 52° |
| 2026-05-07 07:31 | 18.83572 | 84.87405 | 34816 ft | 488 kts | 52° |
| 2026-05-07 07:32 | 18.87709 | 84.93108 | 34820 ft | 488 kts | 52° |
| 2026-05-07 07:32 | 18.91853 | 84.98805 | 34829 ft | 488 kts | 52° |
| 2026-05-07 07:33 | 18.95960 | 85.04476 | 34830 ft | 488 kts | 52° |
| 2026-05-07 07:33 | 19.00075 | 85.10167 | 34829 ft | 488 kts | 52° |
| 2026-05-07 07:34 | 19.04168 | 85.15839 | 34826 ft | 489 kts | 52° |
| 2026-05-07 07:34 | 19.08311 | 85.21587 | 34823 ft | 491 kts | 52° |
| 2026-05-07 07:35 | 19.12546 | 85.27217 | 34823 ft | 490 kts | 47° |
| 2026-05-07 07:35 | 19.17203 | 85.32501 | 34823 ft | 490 kts | 45° |
| 2026-05-07 07:36 | 19.21887 | 85.37718 | 34820 ft | 489 kts | 45° |
| 2026-05-07 07:36 | 19.26543 | 85.42934 | 34819 ft | 489 kts | 45° |
| 2026-05-07 07:37 | 19.31213 | 85.48165 | 34816 ft | 489 kts | 45° |
| 2026-05-07 07:37 | 19.35878 | 85.53387 | 34815 ft | 489 kts | 45° |
| 2026-05-07 07:38 | 19.40544 | 85.58626 | 34815 ft | 490 kts | 45° |
| 2026-05-07 07:38 | 19.45206 | 85.63868 | 34814 ft | 490 kts | 45° |
| 2026-05-07 07:39 | 19.49894 | 85.69147 | 34806 ft | 491 kts | 45° |
| 2026-05-07 07:39 | 19.54565 | 85.74412 | 34807 ft | 492 kts | 45° |
| 2026-05-07 07:40 | 19.59242 | 85.79688 | 34810 ft | 491 kts | 45° |
| 2026-05-07 07:40 | 19.63932 | 85.84983 | 34812 ft | 491 kts | 45° |
| 2026-05-07 07:41 | 19.68599 | 85.90258 | 34810 ft | 491 kts | 45° |
| 2026-05-07 07:41 | 19.73267 | 85.95538 | 34813 ft | 491 kts | 45° |
| 2026-05-07 07:42 | 19.77939 | 86.00829 | 34812 ft | 491 kts | 45° |
| 2026-05-07 07:42 | 19.82598 | 86.06113 | 34812 ft | 492 kts | 45° |
| 2026-05-07 07:43 | 19.87293 | 86.11450 | 34813 ft | 493 kts | 45° |
| 2026-05-07 07:43 | 19.91969 | 86.16773 | 34813 ft | 492 kts | 46° |
| 2026-05-07 07:44 | 19.96558 | 86.22162 | 34812 ft | 493 kts | 46° |
| 2026-05-07 07:44 | 20.01127 | 86.27566 | 34814 ft | 494 kts | 46° |
| 2026-05-07 07:45 | 20.05719 | 86.32976 | 34818 ft | 494 kts | 45° |
| 2026-05-07 07:45 | 20.10449 | 86.38338 | 34821 ft | 493 kts | 45° |
| 2026-05-07 07:46 | 20.15160 | 86.43649 | 34813 ft | 494 kts | 45° |
| 2026-05-07 07:46 | 20.19833 | 86.48945 | 34810 ft | 495 kts | 45° |
| 2026-05-07 07:47 | 20.24563 | 86.54324 | 34810 ft | 495 kts | 45° |
| 2026-05-07 07:47 | 20.29242 | 86.59656 | 34810 ft | 494 kts | 45° |
| 2026-05-07 07:48 | 20.33940 | 86.65009 | 34807 ft | 494 kts | 45° |
| 2026-05-07 07:48 | 20.38638 | 86.70368 | 34809 ft | 495 kts | 45° |
| 2026-05-07 07:49 | 20.43339 | 86.75741 | 34805 ft | 496 kts | 45° |
| 2026-05-07 07:49 | 20.48031 | 86.81105 | 34804 ft | 496 kts | 45° |
| 2026-05-07 07:50 | 20.52717 | 86.86471 | 34805 ft | 496 kts | 45° |
| 2026-05-07 07:50 | 20.57420 | 86.91863 | 34805 ft | 495 kts | 45° |
| 2026-05-07 07:51 | 20.62102 | 86.97238 | 34796 ft | 496 kts | 45° |
| 2026-05-07 07:51 | 20.66867 | 87.02612 | 34793 ft | 496 kts | 43° |
| 2026-05-07 07:52 | 20.71696 | 87.07838 | 34794 ft | 495 kts | 43° |
| 2026-05-07 07:52 | 20.76515 | 87.13065 | 34799 ft | 495 kts | 43° |
| 2026-05-07 07:53 | 20.81345 | 87.18333 | 34798 ft | 496 kts | 43° |
| 2026-05-07 07:53 | 20.86169 | 87.23610 | 34797 ft | 497 kts | 43° |
| 2026-05-07 07:54 | 20.91003 | 87.28904 | 34795 ft | 497 kts | 43° |
| 2026-05-07 07:54 | 20.95812 | 87.34175 | 34797 ft | 497 kts | 43° |
| 2026-05-07 07:55 | 21.00653 | 87.39487 | 34797 ft | 497 kts | 43° |
| 2026-05-07 07:55 | 21.05459 | 87.44765 | 34797 ft | 497 kts | 43° |
| 2026-05-07 07:56 | 21.10287 | 87.50075 | 34797 ft | 499 kts | 43° |
| 2026-05-07 07:56 | 21.15134 | 87.55409 | 34799 ft | 499 kts | 43° |
| 2026-05-07 07:57 | 21.19978 | 87.60745 | 34800 ft | 500 kts | 43° |
| 2026-05-07 07:57 | 21.24822 | 87.66090 | 34800 ft | 499 kts | 44° |
| 2026-05-07 07:58 | 21.29730 | 87.71509 | 34802 ft | 499 kts | 44° |
| 2026-05-07 07:58 | 21.34590 | 87.76878 | 34806 ft | 500 kts | 44° |
| 2026-05-07 07:59 | 21.39434 | 87.82242 | 34806 ft | 501 kts | 44° |
| 2026-05-07 07:59 | 21.44271 | 87.87603 | 34805 ft | 502 kts | 44° |
| 2026-05-07 08:00 | 21.49124 | 87.92987 | 34803 ft | 502 kts | 44° |
| 2026-05-07 08:00 | 21.53986 | 87.98391 | 34797 ft | 502 kts | 43° |
| 2026-05-07 08:01 | 21.58907 | 88.03673 | 34797 ft | 501 kts | 38° |
| 2026-05-07 08:01 | 21.64465 | 88.08102 | 34799 ft | 495 kts | 27° |
| 2026-05-07 08:02 | 21.70611 | 88.11356 | 34798 ft | 489 kts | 16° |
| 2026-05-07 08:02 | 21.77054 | 88.13642 | 34799 ft | 486 kts | 12° |
| 2026-05-07 08:03 | 21.83520 | 88.15797 | 34797 ft | 485 kts | 12° |
| 2026-05-07 08:03 | 21.89953 | 88.17978 | 34792 ft | 485 kts | 12° |
| 2026-05-07 08:04 | 21.96692 | 88.20283 | 34787 ft | 486 kts | 12° |
| 2026-05-07 08:04 | 22.03324 | 88.22562 | 34788 ft | 487 kts | 12° |
| 2026-05-07 08:05 | 22.09772 | 88.24779 | 34784 ft | 487 kts | 12° |
| 2026-05-07 08:05 | 22.16300 | 88.27029 | 34821 ft | 490 kts | 12° |
| 2026-05-07 08:05 | 22.19556 | 88.28152 | 35006 ft | 490 kts | 12° |
| 2026-05-07 08:06 | 22.22808 | 88.29273 | 35232 ft | 489 kts | 12° |
| 2026-05-07 08:06 | 22.26029 | 88.30386 | 35401 ft | 489 kts | 12° |
| 2026-05-07 08:06 | 22.29308 | 88.31518 | 35525 ft | 490 kts | 12° |
| 2026-05-07 08:06 | 22.32519 | 88.32626 | 35649 ft | 490 kts | 12° |
| 2026-05-07 08:07 | 22.35763 | 88.33747 | 35768 ft | 491 kts | 12° |
| 2026-05-07 08:07 | 22.42298 | 88.36009 | 35954 ft | 493 kts | 12° |
| 2026-05-07 08:07 | 22.45584 | 88.37150 | 36062 ft | 493 kts | 12° |
| 2026-05-07 08:08 | 22.48859 | 88.38285 | 36172 ft | 494 kts | 12° |
| 2026-05-07 08:08 | 22.52112 | 88.39414 | 36284 ft | 494 kts | 12° |
| 2026-05-07 08:08 | 22.55408 | 88.40557 | 36391 ft | 495 kts | 12° |
| 2026-05-07 08:08 | 22.58606 | 88.41939 | 36406 ft | 505 kts | 24° |
| 2026-05-07 08:09 | 22.61511 | 88.44189 | 36396 ft | 516 kts | 41° |
| 2026-05-07 08:09 | 22.63808 | 88.47201 | 36441 ft | 520 kts | 57° |
| 2026-05-07 08:09 | 22.65301 | 88.50696 | 36515 ft | 520 kts | 74° |
| 2026-05-07 08:09 | 22.65939 | 88.54539 | 36568 ft | 516 kts | 90° |
| 2026-05-07 08:10 | 22.65681 | 88.58385 | 36620 ft | 509 kts | 104° |
| 2026-05-07 08:10 | 22.65006 | 88.62114 | 36749 ft | 508 kts | 106° |
| 2026-05-07 08:10 | 22.64284 | 88.65816 | 36801 ft | 509 kts | 106° |
| 2026-05-07 08:11 | 22.62900 | 88.73350 | 36803 ft | 509 kts | 105° |
| 2026-05-07 08:11 | 22.61627 | 88.80864 | 36798 ft | 509 kts | 104° |
| 2026-05-07 08:12 | 22.60374 | 88.88387 | 36795 ft | 509 kts | 104° |
| 2026-05-07 08:12 | 22.59214 | 88.95934 | 36790 ft | 511 kts | 101° |
| 2026-05-07 08:13 | 22.58370 | 89.03565 | 36789 ft | 512 kts | 100° |
| 2026-05-07 08:13 | 22.57551 | 89.11173 | 36789 ft | 512 kts | 100° |
| 2026-05-07 08:14 | 22.56719 | 89.18803 | 36790 ft | 511 kts | 101° |
| 2026-05-07 08:14 | 22.55875 | 89.26425 | 36790 ft | 512 kts | 101° |
| 2026-05-07 08:15 | 22.55030 | 89.34023 | 36791 ft | 511 kts | 101° |
| 2026-05-07 08:15 | 22.54178 | 89.41626 | 36792 ft | 511 kts | 100° |
| 2026-05-07 08:16 | 22.53321 | 89.49264 | 36789 ft | 511 kts | 100° |
| 2026-05-07 08:16 | 22.52465 | 89.56856 | 36785 ft | 511 kts | 100° |
| 2026-05-07 08:17 | 22.51603 | 89.64471 | 36783 ft | 510 kts | 100° |
| 2026-05-07 08:17 | 22.50744 | 89.72024 | 36782 ft | 509 kts | 101° |
| 2026-05-07 08:18 | 22.49873 | 89.79645 | 36782 ft | 509 kts | 101° |
| 2026-05-07 08:18 | 22.49004 | 89.87212 | 36779 ft | 509 kts | 101° |
| 2026-05-07 08:19 | 22.48132 | 89.94779 | 36782 ft | 510 kts | 101° |
| 2026-05-07 08:19 | 22.47255 | 90.02358 | 36784 ft | 510 kts | 101° |
| 2026-05-07 08:20 | 22.46372 | 90.09959 | 36794 ft | 509 kts | 101° |
| 2026-05-07 08:20 | 22.45492 | 90.17495 | 36795 ft | 509 kts | 100° |
| 2026-05-07 08:21 | 22.44606 | 90.25071 | 36793 ft | 509 kts | 101° |
| 2026-05-07 08:21 | 22.43719 | 90.32611 | 36797 ft | 508 kts | 101° |
| 2026-05-07 08:22 | 22.42827 | 90.40161 | 36802 ft | 508 kts | 101° |
| 2026-05-07 08:22 | 22.41928 | 90.47737 | 36803 ft | 508 kts | 100° |
| 2026-05-07 08:23 | 22.41030 | 90.55273 | 36808 ft | 508 kts | 100° |
| 2026-05-07 08:23 | 22.40122 | 90.62869 | 36812 ft | 508 kts | 100° |
| 2026-05-07 08:24 | 22.39216 | 90.70422 | 36815 ft | 507 kts | 101° |
| 2026-05-07 08:24 | 22.38312 | 90.77935 | 36815 ft | 507 kts | 101° |
| 2026-05-07 08:25 | 22.37400 | 90.85460 | 36814 ft | 507 kts | 101° |
| 2026-05-07 08:25 | 22.36488 | 90.92963 | 36821 ft | 506 kts | 101° |
| 2026-05-07 08:26 | 22.35105 | 91.04282 | 36818 ft | 507 kts | 101° |
| 2026-05-07 08:26 | 22.34185 | 91.11779 | 36817 ft | 507 kts | 101° |
| 2026-05-07 08:27 | 22.33252 | 91.19334 | 36818 ft | 507 kts | 100° |
| 2026-05-07 08:27 | 22.32324 | 91.26831 | 36811 ft | 506 kts | 100° |
| 2026-05-07 08:28 | 22.31393 | 91.34332 | 36802 ft | 506 kts | 101° |
| 2026-05-07 08:28 | 22.30482 | 91.41835 | 36804 ft | 507 kts | 99° |
| 2026-05-07 08:29 | 22.29627 | 91.49427 | 36802 ft | 507 kts | 99° |
| 2026-05-07 08:29 | 22.28775 | 91.56939 | 36807 ft | 507 kts | 99° |
| 2026-05-07 08:30 | 22.27907 | 91.64484 | 36807 ft | 506 kts | 100° |
| 2026-05-07 08:30 | 22.27034 | 91.72000 | 36813 ft | 506 kts | 100° |
| 2026-05-07 08:31 | 22.26358 | 91.79573 | 36816 ft | 508 kts | 95° |
| 2026-05-07 08:31 | 22.26487 | 91.87141 | 36819 ft | 509 kts | 86° |
| 2026-05-07 08:32 | 22.27406 | 91.94711 | 36817 ft | 510 kts | 82° |
| 2026-05-07 08:32 | 22.28501 | 92.02258 | 36812 ft | 510 kts | 82° |
| 2026-05-07 08:33 | 22.29565 | 92.09796 | 36808 ft | 510 kts | 83° |
| 2026-05-07 08:33 | 22.30607 | 92.17339 | 36813 ft | 510 kts | 83° |
| 2026-05-07 08:34 | 22.31649 | 92.24923 | 36809 ft | 510 kts | 83° |
| 2026-05-07 08:34 | 22.32689 | 92.32471 | 36814 ft | 510 kts | 82° |
| 2026-05-07 08:35 | 22.33722 | 92.39992 | 36815 ft | 510 kts | 82° |
| 2026-05-07 08:35 | 22.34758 | 92.47587 | 36816 ft | 510 kts | 82° |
| 2026-05-07 08:36 | 22.35782 | 92.55149 | 36822 ft | 511 kts | 82° |
| 2026-05-07 08:36 | 22.36800 | 92.62698 | 36829 ft | 510 kts | 82° |
| 2026-05-07 08:37 | 22.37814 | 92.70242 | 36839 ft | 510 kts | 83° |
| 2026-05-07 08:37 | 22.38834 | 92.77827 | 36852 ft | 510 kts | 82° |
| 2026-05-07 08:38 | 22.39861 | 92.85362 | 36894 ft | 511 kts | 83° |
| 2026-05-07 08:38 | 22.40883 | 92.92934 | 36939 ft | 510 kts | 83° |
| 2026-05-07 08:39 | 22.41899 | 93.00507 | 36989 ft | 510 kts | 82° |
| 2026-05-07 08:39 | 22.42908 | 93.08067 | 37007 ft | 510 kts | 82° |
| 2026-05-07 08:40 | 22.43920 | 93.15680 | 37005 ft | 510 kts | 82° |
| 2026-05-07 08:40 | 22.44920 | 93.23226 | 36995 ft | 509 kts | 82° |
| 2026-05-07 08:41 | 22.45913 | 93.30754 | 36995 ft | 509 kts | 83° |
| 2026-05-07 08:41 | 22.46909 | 93.38322 | 37040 ft | 509 kts | 83° |
| 2026-05-07 08:42 | 22.47896 | 93.45857 | 37078 ft | 509 kts | 83° |
| 2026-05-07 08:42 | 22.48883 | 93.53429 | 37116 ft | 508 kts | 82° |
| 2026-05-07 08:43 | 22.49863 | 93.60968 | 37100 ft | 508 kts | 82° |
| 2026-05-07 08:43 | 22.50838 | 93.68494 | 37063 ft | 508 kts | 83° |
| 2026-05-07 08:44 | 22.51810 | 93.76029 | 37022 ft | 508 kts | 83° |
| 2026-05-07 08:44 | 22.52781 | 93.83583 | 36975 ft | 508 kts | 83° |
| 2026-05-07 08:45 | 22.53750 | 93.91148 | 36927 ft | 509 kts | 83° |
| 2026-05-07 08:45 | 22.54714 | 93.98692 | 36863 ft | 509 kts | 83° |
| 2026-05-07 08:46 | 22.55676 | 94.06268 | 36837 ft | 510 kts | 83° |
| 2026-05-07 08:46 | 22.56636 | 94.13841 | 36855 ft | 510 kts | 83° |
| 2026-05-07 08:47 | 22.57589 | 94.21405 | 36878 ft | 510 kts | 83° |
| 2026-05-07 08:47 | 22.58541 | 94.28986 | 36886 ft | 510 kts | 83° |
| 2026-05-07 08:48 | 22.59489 | 94.36562 | 36866 ft | 509 kts | 82° |
| 2026-05-07 08:48 | 22.60436 | 94.44155 | 36828 ft | 509 kts | 83° |
| 2026-05-07 08:49 | 22.61375 | 94.51701 | 36787 ft | 509 kts | 83° |
| 2026-05-07 08:49 | 22.62312 | 94.59293 | 36769 ft | 510 kts | 83° |
| 2026-05-07 08:50 | 22.63245 | 94.66861 | 36760 ft | 510 kts | 83° |
| 2026-05-07 08:50 | 22.64180 | 94.74480 | 36757 ft | 510 kts | 83° |
| 2026-05-07 08:51 | 22.65103 | 94.82035 | 36752 ft | 510 kts | 83° |
| 2026-05-07 08:51 | 22.66031 | 94.89664 | 36748 ft | 510 kts | 83° |
| 2026-05-07 08:52 | 22.66953 | 94.97263 | 36751 ft | 511 kts | 83° |
| 2026-05-07 08:52 | 22.67867 | 95.04832 | 36753 ft | 511 kts | 83° |
| 2026-05-07 08:53 | 22.68785 | 95.12457 | 36749 ft | 512 kts | 83° |
| 2026-05-07 08:53 | 22.69703 | 95.20111 | 36745 ft | 512 kts | 83° |
| 2026-05-07 08:54 | 22.70611 | 95.27729 | 36736 ft | 511 kts | 83° |
| 2026-05-07 08:54 | 22.71514 | 95.35336 | 36738 ft | 511 kts | 83° |
| 2026-05-07 08:55 | 22.72414 | 95.42944 | 36743 ft | 511 kts | 83° |
| 2026-05-07 08:55 | 22.73310 | 95.50561 | 36751 ft | 510 kts | 82° |
| 2026-05-07 08:56 | 22.74202 | 95.58144 | 36753 ft | 510 kts | 82° |
| 2026-05-07 08:56 | 22.75079 | 95.65640 | 36757 ft | 509 kts | 83° |
| 2026-05-07 08:57 | 22.75960 | 95.73208 | 36759 ft | 509 kts | 83° |
| 2026-05-07 08:57 | 22.76839 | 95.80788 | 36754 ft | 508 kts | 83° |
| 2026-05-07 08:58 | 22.77714 | 95.88381 | 36759 ft | 509 kts | 83° |
| 2026-05-07 08:58 | 22.78586 | 95.95976 | 36765 ft | 508 kts | 83° |
| 2026-05-07 08:59 | 22.79450 | 96.03526 | 36767 ft | 508 kts | 83° |
| 2026-05-07 08:59 | 22.80317 | 96.11143 | 36802 ft | 509 kts | 83° |
| 2026-05-07 09:00 | 22.81179 | 96.18733 | 36843 ft | 509 kts | 83° |
| 2026-05-07 09:00 | 22.82034 | 96.26294 | 36887 ft | 510 kts | 83° |
| 2026-05-07 09:01 | 22.82890 | 96.33895 | 36913 ft | 509 kts | 83° |
| 2026-05-07 09:01 | 22.83740 | 96.41499 | 36942 ft | 509 kts | 83° |
| 2026-05-07 09:02 | 22.84588 | 96.49099 | 36959 ft | 508 kts | 82° |
| 2026-05-07 09:02 | 22.85425 | 96.56646 | 36972 ft | 508 kts | 83° |
| 2026-05-07 09:03 | 22.86267 | 96.64257 | 36983 ft | 509 kts | 82° |
| 2026-05-07 09:03 | 22.87102 | 96.71850 | 36989 ft | 509 kts | 83° |
| 2026-05-07 09:04 | 22.87936 | 96.79457 | 36992 ft | 509 kts | 83° |
| 2026-05-07 09:04 | 22.88760 | 96.87018 | 36992 ft | 508 kts | 83° |
| 2026-05-07 09:05 | 22.89588 | 96.94636 | 36995 ft | 508 kts | 83° |
| 2026-05-07 09:05 | 22.90408 | 97.02236 | 37007 ft | 509 kts | 83° |
| 2026-05-07 09:06 | 22.91226 | 97.09838 | 37029 ft | 508 kts | 83° |
| 2026-05-07 09:06 | 22.92038 | 97.17423 | 37049 ft | 508 kts | 83° |
| 2026-05-07 09:07 | 22.92844 | 97.24995 | 37072 ft | 507 kts | 83° |
| 2026-05-07 09:07 | 22.93650 | 97.32597 | 37063 ft | 508 kts | 83° |
| 2026-05-07 09:08 | 22.94451 | 97.40188 | 37038 ft | 508 kts | 83° |
| 2026-05-07 09:08 | 22.95250 | 97.47813 | 37006 ft | 507 kts | 83° |
| 2026-05-07 09:09 | 22.96042 | 97.55391 | 36983 ft | 508 kts | 83° |
| 2026-05-07 09:09 | 22.96832 | 97.63006 | 36979 ft | 508 kts | 83° |
| 2026-05-07 09:10 | 22.97680 | 97.70647 | 36971 ft | 508 kts | 80° |
| 2026-05-07 09:10 | 22.99176 | 97.78079 | 36969 ft | 507 kts | 72° |
| 2026-05-07 09:11 | 23.01438 | 97.85255 | 36972 ft | 505 kts | 68° |
| 2026-05-07 09:11 | 23.03957 | 97.92489 | 36975 ft | 505 kts | 67° |
| 2026-05-07 09:12 | 23.06519 | 97.99901 | 36977 ft | 504 kts | 68° |
| 2026-05-07 09:12 | 23.09072 | 98.07358 | 36994 ft | 504 kts | 68° |
| 2026-05-07 09:13 | 23.11632 | 98.14868 | 37021 ft | 504 kts | 68° |
| 2026-05-07 09:13 | 23.14179 | 98.22359 | 37053 ft | 504 kts | 68° |
| 2026-05-07 09:14 | 23.16768 | 98.29983 | 37069 ft | 504 kts | 68° |
| 2026-05-07 09:14 | 23.19305 | 98.37470 | 37057 ft | 503 kts | 68° |
| 2026-05-07 09:15 | 23.21853 | 98.45005 | 37043 ft | 503 kts | 68° |
| 2026-05-07 09:15 | 23.24368 | 98.52450 | 37027 ft | 502 kts | 68° |
| 2026-05-07 09:16 | 23.26885 | 98.59917 | 37037 ft | 503 kts | 68° |
| 2026-05-07 09:16 | 23.29395 | 98.67376 | 37044 ft | 502 kts | 68° |
| 2026-05-07 09:17 | 23.31893 | 98.74821 | 37066 ft | 502 kts | 68° |
| 2026-05-07 09:17 | 23.34368 | 98.82214 | 37069 ft | 501 kts | 68° |
| 2026-05-07 09:18 | 23.36866 | 98.89693 | 37063 ft | 501 kts | 68° |
| 2026-05-07 09:18 | 23.39287 | 98.97157 | 37060 ft | 501 kts | 70° |
| 2026-05-07 09:19 | 23.41606 | 99.04611 | 37067 ft | 501 kts | 70° |
| 2026-05-07 09:19 | 23.43948 | 99.12143 | 37109 ft | 501 kts | 70° |
| 2026-05-07 09:20 | 23.46292 | 99.19674 | 37152 ft | 501 kts | 69° |
| 2026-05-07 09:20 | 23.48621 | 99.27174 | 37197 ft | 501 kts | 70° |
| 2026-05-07 09:21 | 23.50944 | 99.34664 | 37190 ft | 501 kts | 69° |
| 2026-05-07 09:21 | 23.53627 | 99.41993 | 37162 ft | 499 kts | 62° |
| 2026-05-07 09:22 | 23.57033 | 99.48892 | 37143 ft | 498 kts | 57° |
| 2026-05-07 09:22 | 23.60632 | 99.55711 | 37143 ft | 498 kts | 57° |
| 2026-05-07 09:23 | 23.64085 | 99.62291 | 37155 ft | 498 kts | 57° |
| 2026-05-07 09:23 | 23.67515 | 99.68868 | 37175 ft | 498 kts | 58° |
| 2026-05-07 09:24 | 23.70914 | 99.75398 | 37195 ft | 499 kts | 58° |
| 2026-05-07 09:24 | 23.74336 | 99.81985 | 37213 ft | 499 kts | 58° |
| 2026-05-07 09:25 | 23.77747 | 99.88561 | 37215 ft | 499 kts | 58° |
| 2026-05-07 09:25 | 23.81160 | 99.95152 | 37207 ft | 500 kts | 58° |
| 2026-05-07 09:26 | 23.84573 | 100.01751 | 37208 ft | 500 kts | 58° |
| 2026-05-07 09:26 | 23.87991 | 100.08373 | 37209 ft | 500 kts | 58° |
| 2026-05-07 09:27 | 23.91384 | 100.14953 | 37218 ft | 500 kts | 58° |
| 2026-05-07 09:28 | 23.96617 | 100.25114 | 37255 ft | 499 kts | 58° |
| 2026-05-07 09:28 | 24.00169 | 100.32026 | 37264 ft | 499 kts | 58° |
| 2026-05-07 09:29 | 24.03559 | 100.38631 | 37224 ft | 499 kts | 58° |
| 2026-05-07 09:29 | 24.06933 | 100.45225 | 37177 ft | 499 kts | 58° |
| 2026-05-07 09:30 | 24.10330 | 100.51874 | 37129 ft | 499 kts | 58° |
| 2026-05-07 09:30 | 24.13696 | 100.58481 | 37126 ft | 499 kts | 58° |
| 2026-05-07 09:31 | 24.17042 | 100.65126 | 37151 ft | 499 kts | 59° |
| 2026-05-07 09:31 | 24.20373 | 100.71773 | 37171 ft | 499 kts | 58° |
| 2026-05-07 09:32 | 24.23710 | 100.78440 | 37187 ft | 499 kts | 58° |
| 2026-05-07 09:32 | 24.27034 | 100.85094 | 37180 ft | 499 kts | 58° |
| 2026-05-07 09:33 | 24.30346 | 100.91731 | 37173 ft | 500 kts | 58° |
| 2026-05-07 09:33 | 24.33688 | 100.98440 | 37163 ft | 499 kts | 58° |
| 2026-05-07 09:34 | 24.36998 | 101.05091 | 37166 ft | 499 kts | 58° |
| 2026-05-07 09:34 | 24.40303 | 101.11743 | 37173 ft | 499 kts | 58° |
| 2026-05-07 09:35 | 24.43627 | 101.18444 | 37173 ft | 499 kts | 59° |
| 2026-05-07 09:35 | 24.46920 | 101.25092 | 37162 ft | 499 kts | 58° |
| 2026-05-07 09:36 | 24.50231 | 101.31786 | 37140 ft | 498 kts | 59° |
| 2026-05-07 09:36 | 24.53525 | 101.38458 | 37128 ft | 498 kts | 58° |
| 2026-05-07 09:37 | 24.56808 | 101.45124 | 37123 ft | 498 kts | 59° |
| 2026-05-07 09:37 | 24.60103 | 101.51821 | 37123 ft | 498 kts | 59° |
| 2026-05-07 09:38 | 24.63165 | 101.58642 | 37129 ft | 500 kts | 64° |
| 2026-05-07 09:38 | 24.65727 | 101.65730 | 37141 ft | 501 kts | 66° |
| 2026-05-07 09:39 | 24.68241 | 101.72882 | 37143 ft | 501 kts | 67° |
| 2026-05-07 09:39 | 24.70751 | 101.80010 | 37146 ft | 502 kts | 66° |
| 2026-05-07 09:40 | 24.73277 | 101.87167 | 37147 ft | 502 kts | 67° |
| 2026-05-07 09:40 | 24.75782 | 101.94276 | 37146 ft | 501 kts | 66° |
| 2026-05-07 09:41 | 24.78301 | 102.01434 | 37142 ft | 500 kts | 66° |
| 2026-05-07 09:41 | 24.80794 | 102.08525 | 37139 ft | 500 kts | 66° |
| 2026-05-07 09:42 | 24.83293 | 102.15649 | 37147 ft | 501 kts | 66° |
| 2026-05-07 09:42 | 24.85793 | 102.22787 | 37160 ft | 501 kts | 66° |
| 2026-05-07 09:43 | 24.88296 | 102.29946 | 37164 ft | 501 kts | 67° |
| 2026-05-07 09:43 | 24.90783 | 102.37077 | 37190 ft | 500 kts | 67° |
| 2026-05-07 09:44 | 24.93279 | 102.44252 | 37230 ft | 502 kts | 66° |
| 2026-05-07 09:44 | 24.95770 | 102.51414 | 37250 ft | 502 kts | 67° |
| 2026-05-07 09:45 | 24.98259 | 102.58592 | 37248 ft | 502 kts | 67° |
| 2026-05-07 09:45 | 25.00752 | 102.65783 | 37228 ft | 502 kts | 67° |
| 2026-05-07 09:46 | 25.03213 | 102.72914 | 37209 ft | 487 kts | 67° |
| 2026-05-07 09:46 | 25.05573 | 102.79768 | 37228 ft | 479 kts | 66° |
| 2026-05-07 09:47 | 25.07948 | 102.86665 | 37243 ft | 478 kts | 67° |
| 2026-05-07 09:47 | 25.10315 | 102.93557 | 37264 ft | 478 kts | 67° |
| 2026-05-07 09:48 | 25.12661 | 103.00440 | 37270 ft | 479 kts | 67° |
| 2026-05-07 09:48 | 25.14993 | 103.07285 | 37262 ft | 478 kts | 67° |
| 2026-05-07 09:49 | 25.17347 | 103.14158 | 37247 ft | 477 kts | 67° |
| 2026-05-07 09:49 | 25.19714 | 103.21103 | 37249 ft | 478 kts | 67° |
| 2026-05-07 09:50 | 25.22046 | 103.27965 | 37188 ft | 473 kts | 67° |
| 2026-05-07 09:50 | 25.23184 | 103.31313 | 36848 ft | 470 kts | 67° |
| 2026-05-07 09:50 | 25.24335 | 103.34697 | 36303 ft | 467 kts | 67° |
| 2026-05-07 09:50 | 25.25460 | 103.38017 | 35672 ft | 462 kts | 67° |
| 2026-05-07 09:51 | 25.26484 | 103.41340 | 34536 ft | 467 kts | 74° |
| 2026-05-07 09:51 | 25.27276 | 103.45042 | 33151 ft | 471 kts | 69° |
| 2026-05-07 09:51 | 25.28817 | 103.48349 | 31689 ft | 466 kts | 46° |
| 2026-05-07 09:51 | 25.31303 | 103.50785 | 30252 ft | 456 kts | 25° |
| 2026-05-07 09:52 | 25.34290 | 103.52004 | 28818 ft | 444 kts | 2° |
| 2026-05-07 09:52 | 25.37418 | 103.51890 | 27515 ft | 425 kts | 339° |
| 2026-05-07 09:52 | 25.40139 | 103.50450 | 26406 ft | 402 kts | 315° |
| 2026-05-07 09:52 | 25.41917 | 103.48099 | 25390 ft | 382 kts | 292° |
| 2026-05-07 09:53 | 25.42577 | 103.45251 | 24371 ft | 368 kts | 268° |
| 2026-05-07 09:53 | 25.42151 | 103.42422 | 23416 ft | 359 kts | 252° |
| 2026-05-07 09:53 | 25.41162 | 103.39815 | 22487 ft | 355 kts | 242° |
| 2026-05-07 09:53 | 25.39792 | 103.37558 | 21674 ft | 350 kts | 231° |
| 2026-05-07 09:54 | 25.38085 | 103.35708 | 21343 ft | 347 kts | 220° |
| 2026-05-07 09:54 | 25.35963 | 103.34422 | 21108 ft | 353 kts | 202° |
| 2026-05-07 09:54 | 25.33568 | 103.33576 | 20881 ft | 351 kts | 206° |
| 2026-05-07 09:54 | 25.31364 | 103.32262 | 20642 ft | 335 kts | 217° |
| 2026-05-07 09:55 | 25.29450 | 103.30608 | 20398 ft | 323 kts | 224° |
| 2026-05-07 09:55 | 25.27801 | 103.28828 | 20161 ft | 313 kts | 229° |
| 2026-05-07 09:55 | 25.26321 | 103.26989 | 19925 ft | 304 kts | 231° |
| 2026-05-07 09:55 | 25.24947 | 103.25117 | 19682 ft | 296 kts | 233° |
| 2026-05-07 09:56 | 25.23656 | 103.23249 | 19436 ft | 289 kts | 234° |
| 2026-05-07 09:56 | 25.22416 | 103.21381 | 19187 ft | 281 kts | 235° |
| 2026-05-07 09:56 | 25.21255 | 103.19588 | 18946 ft | 274 kts | 235° |
| 2026-05-07 09:56 | 25.20123 | 103.17808 | 18703 ft | 268 kts | 236° |
| 2026-05-07 09:57 | 25.19018 | 103.16056 | 18461 ft | 266 kts | 236° |
| 2026-05-07 09:57 | 25.17940 | 103.14335 | 18221 ft | 265 kts | 236° |
| 2026-05-07 09:57 | 25.16890 | 103.12650 | 17997 ft | 264 kts | 236° |
| 2026-05-07 09:57 | 25.15838 | 103.10960 | 17763 ft | 262 kts | 236° |
| 2026-05-07 09:58 | 25.14818 | 103.09319 | 17521 ft | 261 kts | 236° |
| 2026-05-07 09:58 | 25.13830 | 103.07726 | 17297 ft | 260 kts | 236° |
| 2026-05-07 09:58 | 25.12848 | 103.06142 | 17089 ft | 260 kts | 236° |
| 2026-05-07 09:58 | 25.11863 | 103.04555 | 16873 ft | 259 kts | 236° |
| 2026-05-07 09:59 | 25.10901 | 103.03005 | 16649 ft | 259 kts | 236° |
| 2026-05-07 09:59 | 25.09951 | 103.01474 | 16431 ft | 258 kts | 235° |
| 2026-05-07 09:59 | 25.08996 | 102.99934 | 16219 ft | 257 kts | 236° |
| 2026-05-07 09:59 | 25.08018 | 102.98360 | 15999 ft | 256 kts | 235° |
| 2026-05-07 10:00 | 25.06975 | 102.96679 | 15760 ft | 256 kts | 235° |
| 2026-05-07 10:00 | 25.05932 | 102.95000 | 15523 ft | 255 kts | 236° |
| 2026-05-07 10:00 | 25.04875 | 102.93300 | 15280 ft | 254 kts | 235° |
| 2026-05-07 10:00 | 25.03830 | 102.91621 | 15039 ft | 254 kts | 236° |
| 2026-05-07 10:01 | 25.02808 | 102.89976 | 14811 ft | 253 kts | 236° |
| 2026-05-07 10:01 | 25.01761 | 102.88293 | 14562 ft | 252 kts | 236° |
| 2026-05-07 10:01 | 25.00745 | 102.86659 | 14324 ft | 252 kts | 236° |
| 2026-05-07 10:01 | 24.99703 | 102.84984 | 14081 ft | 251 kts | 236° |
| 2026-05-07 10:02 | 24.98677 | 102.83336 | 13848 ft | 251 kts | 236° |
| 2026-05-07 10:02 | 24.97653 | 102.81690 | 13613 ft | 250 kts | 236° |
| 2026-05-07 10:02 | 24.96608 | 102.80013 | 13369 ft | 250 kts | 236° |
| 2026-05-07 10:02 | 24.95596 | 102.78388 | 13225 ft | 249 kts | 236° |
| 2026-05-07 10:03 | 24.94581 | 102.76759 | 13218 ft | 251 kts | 236° |
| 2026-05-07 10:03 | 24.93530 | 102.75075 | 13212 ft | 251 kts | 236° |
| 2026-05-07 10:03 | 24.92494 | 102.73417 | 13215 ft | 252 kts | 236° |
| 2026-05-07 10:03 | 24.91446 | 102.71736 | 13217 ft | 252 kts | 236° |
| 2026-05-07 10:04 | 24.90389 | 102.70040 | 13224 ft | 252 kts | 236° |
| 2026-05-07 10:04 | 24.89340 | 102.68359 | 13223 ft | 251 kts | 236° |
| 2026-05-07 10:04 | 24.88309 | 102.66708 | 13221 ft | 251 kts | 236° |
| 2026-05-07 10:04 | 24.87276 | 102.65055 | 13224 ft | 252 kts | 236° |
| 2026-05-07 10:05 | 24.86222 | 102.63366 | 13231 ft | 252 kts | 236° |
| 2026-05-07 10:05 | 24.85165 | 102.61675 | 13232 ft | 252 kts | 236° |
| 2026-05-07 10:05 | 24.84131 | 102.60022 | 13238 ft | 253 kts | 236° |
| 2026-05-07 10:05 | 24.83087 | 102.58353 | 13245 ft | 253 kts | 236° |
| 2026-05-07 10:06 | 24.82081 | 102.56745 | 13230 ft | 249 kts | 236° |
| 2026-05-07 10:06 | 24.81109 | 102.55193 | 12970 ft | 248 kts | 236° |
| 2026-05-07 10:06 | 24.80043 | 102.53712 | 12630 ft | 247 kts | 220° |
| 2026-05-07 10:06 | 24.78502 | 102.52935 | 12437 ft | 243 kts | 191° |
| 2026-05-07 10:07 | 24.76826 | 102.53082 | 12142 ft | 248 kts | 163° |
| 2026-05-07 10:07 | 24.75375 | 102.54133 | 11782 ft | 254 kts | 135° |
| 2026-05-07 10:07 | 24.74273 | 102.55663 | 11473 ft | 253 kts | 130° |
| 2026-05-07 10:07 | 24.73222 | 102.57184 | 11151 ft | 252 kts | 130° |
| 2026-05-07 10:08 | 24.72396 | 102.58882 | 10777 ft | 256 kts | 103° |
| 2026-05-07 10:08 | 24.72512 | 102.60875 | 10453 ft | 258 kts | 70° |
| 2026-05-07 10:08 | 24.73592 | 102.62530 | 10246 ft | 255 kts | 39° |
| 2026-05-07 10:08 | 24.75081 | 102.63769 | 10248 ft | 257 kts | 37° |
| 2026-05-07 10:09 | 24.76568 | 102.64990 | 10233 ft | 256 kts | 38° |
| 2026-05-07 10:09 | 24.78061 | 102.66245 | 10222 ft | 256 kts | 38° |
| 2026-05-07 10:09 | 24.79556 | 102.67522 | 10220 ft | 256 kts | 39° |
| 2026-05-07 10:09 | 24.80955 | 102.68726 | 10220 ft | 253 kts | 39° |
| 2026-05-07 10:10 | 24.82354 | 102.69937 | 10217 ft | 254 kts | 39° |
| 2026-05-07 10:10 | 24.83745 | 102.71145 | 10215 ft | 253 kts | 39° |
| 2026-05-07 10:10 | 24.85128 | 102.72345 | 10212 ft | 252 kts | 38° |
| 2026-05-07 10:10 | 24.86548 | 102.73576 | 10211 ft | 249 kts | 38° |
| 2026-05-07 10:11 | 24.87960 | 102.74801 | 10210 ft | 247 kts | 38° |
| 2026-05-07 10:11 | 24.89363 | 102.76019 | 10210 ft | 245 kts | 38° |
| 2026-05-07 10:11 | 24.90774 | 102.77245 | 10214 ft | 246 kts | 38° |
| 2026-05-07 10:11 | 24.92119 | 102.78413 | 10221 ft | 246 kts | 39° |
| 2026-05-07 10:12 | 24.93463 | 102.79578 | 10297 ft | 228 kts | 39° |
| 2026-05-07 10:12 | 24.94687 | 102.80622 | 10233 ft | 210 kts | 39° |
| 2026-05-07 10:12 | 24.95820 | 102.81593 | 10049 ft | 200 kts | 39° |
| 2026-05-07 10:12 | 24.96904 | 102.82535 | 9760 ft | 192 kts | 40° |
| 2026-05-07 10:13 | 24.97913 | 102.83418 | 9482 ft | 180 kts | 40° |
| 2026-05-07 10:13 | 24.98880 | 102.84264 | 9234 ft | 175 kts | 39° |
| 2026-05-07 10:13 | 24.99817 | 102.85086 | 9016 ft | 174 kts | 39° |
| 2026-05-07 10:13 | 25.00773 | 102.85923 | 8803 ft | 173 kts | 39° |
| 2026-05-07 10:14 | 25.01703 | 102.86736 | 8633 ft | 169 kts | 38° |
| 2026-05-07 10:14 | 25.02620 | 102.87537 | 8412 ft | 165 kts | 38° |
| 2026-05-07 10:14 | 25.03511 | 102.88314 | 8208 ft | 164 kts | 38° |
| 2026-05-07 10:14 | 25.04407 | 102.89096 | 8001 ft | 164 kts | 38° |
| 2026-05-07 10:15 | 25.05304 | 102.89878 | 7793 ft | 163 kts | 37° |
| 2026-05-07 10:15 | 25.06202 | 102.90661 | 7586 ft | 163 kts | 37° |
| 2026-05-07 10:15 | 25.06925 | 102.91290 | 7421 ft | 163 kts | 37° |
| 2026-05-07 10:18 | 25.07177 | 102.91510 | 7363 ft | 163 kts | 37° |
| 2026-05-07 10:19 | 25.08072 | 102.92290 | 7157 ft | 162 kts | 37° |
| 2026-05-07 10:19 | 25.08194 | 102.92396 | 7126 ft | 162 kts | 37° |
| 2026-05-07 10:20 | 25.08739 | 102.92879 | 7016 ft | 159 kts | 37° |
| 2026-05-07 10:20 | 25.09555 | 102.93613 | 6912 ft | 139 kts | 37° |
| 2026-05-07 10:21 | 25.10018 | 102.93997 | 6911 ft | 73 kts | 34° |